Terminal Aerodrome Forecast
Issued by NWS

Home | Current Version | Previous Version | Text Only | Print | Product List | Glossary On
Versions: 1 2 3 4 5 6 7 8 9 10 11 12 13 14
000
FTUS42 TJSJ 280500 RRA
TAFIST
TAF
TIST 280544Z 2806/2906 06007KT P6SM FEW030
     FM281300 05012KT P6SM VCSH SCT025 BKN045
     FM282300 07008KT P6SM VCSH SCT025 BKN045 BKN060
      AMD NOT SKED=

USA.gov is the U.S. government's official web portal to all federal, state and local government web resources and services.